createdAt,value
2023-05-09T00:01:29.954Z,32.33
2023-05-09T00:03:56.429Z,31.33
2023-05-09T00:06:23.251Z,32.10
2023-05-09T00:08:49.685Z,30.10
2023-05-09T00:11:16.083Z,34.38
2023-05-09T00:13:44.072Z,32.40
2023-05-09T00:16:10.837Z,29.95
2023-05-09T00:18:38.073Z,32.83
2023-05-09T00:21:04.588Z,34.15
2023-05-09T00:23:31.068Z,32.30
2023-05-09T00:25:58.176Z,34.95
2023-05-09T00:28:24.598Z,33.33
2023-05-09T00:30:51.035Z,34.05
2023-05-09T00:33:17.492Z,32.70
2023-05-09T00:35:43.877Z,33.92
2023-05-09T00:38:10.431Z,36.63
2023-05-09T00:40:39.626Z,33.47
2023-05-09T00:43:06.091Z,32.42
2023-05-09T00:45:32.619Z,32.28
2023-05-09T00:47:59.209Z,33.45
2023-05-09T00:50:25.670Z,34.65
2023-05-09T00:52:52.207Z,30.52
2023-05-09T00:55:19.538Z,33.58
2023-05-09T00:57:46.142Z,33.70
2023-05-09T01:00:13.567Z,32.58
2023-05-09T01:02:53.984Z,35.53
2023-05-09T01:05:22.754Z,31.90
2023-05-09T01:08:13.137Z,34.65
2023-05-09T01:10:55.992Z,32.47
2023-05-09T01:13:34.236Z,34.90
2023-05-09T01:16:06.129Z,33.22
2023-05-09T01:18:54.303Z,34.42
2023-05-09T01:21:27.952Z,36.65
2023-05-09T01:24:24.833Z,35.85
2023-05-09T01:27:28.597Z,36.38
2023-05-09T01:30:03.026Z,35.28
2023-05-09T01:32:31.974Z,33.55
2023-05-09T01:35:01.405Z,35.60
2023-05-09T01:37:31.663Z,35.38
2023-05-09T01:40:06.760Z,35.00
2023-05-09T01:43:04.078Z,33.63
2023-05-09T01:45:32.680Z,33.30
2023-05-09T01:48:00.093Z,32.80
2023-05-09T01:50:29.356Z,34.38
2023-05-09T01:52:58.544Z,33.40
2023-05-09T01:55:28.349Z,33.40
2023-05-09T01:57:56.567Z,33.78
2023-05-09T02:00:24.115Z,33.95
2023-05-09T02:02:51.964Z,32.40
2023-05-09T02:05:18.818Z,32.80
2023-05-09T02:07:47.394Z,33.75
2023-05-09T02:10:15.822Z,35.78
2023-05-09T02:12:42.313Z,33.53
2023-05-09T02:15:09.596Z,34.05
2023-05-09T02:17:36.094Z,35.90
2023-05-09T02:20:02.544Z,35.28
2023-05-09T02:22:28.956Z,34.40
2023-05-09T02:24:59.020Z,34.20
2023-05-09T02:27:27.043Z,34.05
2023-05-09T02:29:57.561Z,32.90
2023-05-09T02:32:34.115Z,33.13
2023-05-09T02:35:02.898Z,33.90
2023-05-09T02:37:29.828Z,37.22
2023-05-09T02:39:56.674Z,36.50
2023-05-09T02:42:30.187Z,35.30
2023-05-09T02:44:56.623Z,36.10
2023-05-09T02:47:23.198Z,36.10
2023-05-09T02:49:49.690Z,35.13
2023-05-09T02:52:16.197Z,35.67
2023-05-09T02:54:42.630Z,35.08
2023-05-09T02:57:09.035Z,33.63
2023-05-09T02:59:40.973Z,37.15
2023-05-09T03:02:07.430Z,35.72
2023-05-09T03:04:34.080Z,34.22
2023-05-09T03:07:00.512Z,32.08
2023-05-09T03:09:26.970Z,29.95
2023-05-09T03:11:56.299Z,34.88
2023-05-09T03:14:23.053Z,33.05
2023-05-09T03:16:50.990Z,30.42
2023-05-09T03:19:17.477Z,31.67
2023-05-09T03:21:44.003Z,29.08
2023-05-09T03:24:10.411Z,31.10
2023-05-09T03:26:41.588Z,29.30
2023-05-09T03:29:07.990Z,32.30
2023-05-09T03:31:34.717Z,29.70
2023-05-09T03:34:01.135Z,30.67
2023-05-09T03:36:27.550Z,28.30
2023-05-09T03:38:54.125Z,28.45
2023-05-09T03:41:20.792Z,29.30
2023-05-09T03:43:50.275Z,30.27
2023-05-09T03:46:16.814Z,30.35
2023-05-09T03:48:43.322Z,30.15
2023-05-09T03:51:12.581Z,31.83
2023-05-09T03:53:38.959Z,30.80
2023-05-09T03:56:06.527Z,30.38
2023-05-09T03:58:32.933Z,29.50
2023-05-09T04:00:59.391Z,29.42
2023-05-09T04:03:26.963Z,29.10
2023-05-09T04:05:55.604Z,26.10
2023-05-09T04:08:22.126Z,27.98
2023-05-09T04:10:50.210Z,28.98
2023-05-09T04:13:16.908Z,28.70
2023-05-09T04:15:43.495Z,30.52
2023-05-09T04:18:09.901Z,29.65
2023-05-09T04:20:36.471Z,29.10
2023-05-09T04:23:03.080Z,26.50
2023-05-09T04:25:31.059Z,28.95
2023-05-09T04:27:57.744Z,28.35
2023-05-09T04:30:27.350Z,27.73
2023-05-09T04:32:55.369Z,26.00
2023-05-09T04:35:22.667Z,28.25
2023-05-09T04:37:49.511Z,25.13
2023-05-09T04:40:16.004Z,26.67
2023-05-09T04:42:42.439Z,26.48
2023-05-09T04:45:11.586Z,27.52
2023-05-09T04:47:38.564Z,24.33
2023-05-09T04:50:06.724Z,25.83
2023-05-09T04:52:33.243Z,23.50
2023-05-09T04:54:59.621Z,25.60
2023-05-09T04:57:26.106Z,24.52
2023-05-09T04:59:53.020Z,21.75
2023-05-09T05:02:21.175Z,25.77
2023-05-09T05:04:47.794Z,25.17
2023-05-09T05:07:17.251Z,23.63
2023-05-09T05:09:44.089Z,21.98
2023-05-09T05:12:10.594Z,22.25
2023-05-09T05:14:37.046Z,23.63
2023-05-09T05:17:05.874Z,23.35
2023-05-09T05:19:32.268Z,23.40
2023-05-09T05:21:58.820Z,24.15
2023-05-09T05:24:25.312Z,21.50
2023-05-09T05:26:51.997Z,21.02
2023-05-09T05:29:18.526Z,21.40
2023-05-09T05:31:45.141Z,20.13
2023-05-09T05:34:11.729Z,20.58
2023-05-09T05:36:38.107Z,20.30
2023-05-09T05:39:04.604Z,20.63
2023-05-09T05:41:31.490Z,20.02
2023-05-09T05:43:58.072Z,19.60
2023-05-09T05:46:24.694Z,17.80
2023-05-09T05:48:51.225Z,20.27
2023-05-09T05:51:17.672Z,18.65
2023-05-09T05:53:44.248Z,17.90
2023-05-09T05:56:10.687Z,18.40
2023-05-09T05:58:37.193Z,17.63
2023-05-09T06:01:03.891Z,18.40
2023-05-09T06:03:30.850Z,17.63
2023-05-09T06:05:57.657Z,17.00
2023-05-09T06:08:24.069Z,17.83
2023-05-09T06:10:50.534Z,18.52
2023-05-09T06:13:17.117Z,17.95
2023-05-09T06:15:43.874Z,17.60
2023-05-09T06:18:10.597Z,19.27
2023-05-09T06:20:37.162Z,16.13
2023-05-09T06:23:03.570Z,18.58
2023-05-09T06:25:30.963Z,18.92
2023-05-09T06:27:57.687Z,18.23
2023-05-09T06:30:26.670Z,17.23
2023-05-09T06:32:54.449Z,16.92
2023-05-09T06:35:21.384Z,17.08
2023-05-09T06:37:48.858Z,17.52
2023-05-09T06:40:16.258Z,15.25
2023-05-09T06:42:42.738Z,16.75
2023-05-09T06:45:09.598Z,16.55
2023-05-09T06:47:36.017Z,17.63
2023-05-09T06:50:02.512Z,16.88
2023-05-09T06:52:28.936Z,17.27
2023-05-09T06:54:55.438Z,16.52
2023-05-09T06:57:24.781Z,19.33
2023-05-09T06:59:51.284Z,17.83
2023-05-09T07:02:20.696Z,16.33
2023-05-09T07:04:47.240Z,16.45
2023-05-09T07:07:13.983Z,19.15
2023-05-09T07:09:40.360Z,17.80
2023-05-09T07:12:06.979Z,16.45
2023-05-09T07:14:33.405Z,16.30
2023-05-09T07:17:13.833Z,19.70
2023-05-09T07:19:46.291Z,16.73
2023-05-09T07:22:13.512Z,16.75
2023-05-09T07:24:40.050Z,17.42
2023-05-09T07:27:06.450Z,16.90
2023-05-09T07:29:32.831Z,16.80
2023-05-09T07:31:59.302Z,18.35
2023-05-09T07:34:26.589Z,16.02
2023-05-09T07:36:54.424Z,17.05
2023-05-09T07:39:20.867Z,19.90
2023-05-09T07:41:48.732Z,17.05
2023-05-09T07:44:15.852Z,19.48
2023-05-09T07:46:42.722Z,17.48
2023-05-09T07:49:09.319Z,18.08
2023-05-09T07:51:35.907Z,15.25
2023-05-09T07:54:04.749Z,15.90
2023-05-09T07:56:31.244Z,16.23
2023-05-09T07:58:57.714Z,15.65
2023-05-09T08:01:24.286Z,14.63
2023-05-09T08:03:51.169Z,14.48
2023-05-09T08:06:17.765Z,14.95
2023-05-09T08:08:44.294Z,15.00
2023-05-09T08:11:10.875Z,12.88
2023-05-09T08:13:37.491Z,16.02
2023-05-09T08:16:04.236Z,15.65
2023-05-09T08:18:31.068Z,14.30
2023-05-09T08:20:59.509Z,12.98
2023-05-09T08:23:26.508Z,13.63
2023-05-09T08:25:54.470Z,13.30
2023-05-09T08:28:24.036Z,16.17
2023-05-09T08:30:53.615Z,14.52
2023-05-09T08:33:20.217Z,13.93
2023-05-09T08:35:53.551Z,13.60
2023-05-09T08:38:24.204Z,13.40
2023-05-09T08:40:50.691Z,14.55
2023-05-09T08:43:21.993Z,13.02
2023-05-09T08:45:58.022Z,12.13
2023-05-09T08:48:27.823Z,12.60
2023-05-09T08:50:56.111Z,12.35
2023-05-09T08:53:23.724Z,12.82
2023-05-09T08:55:50.882Z,10.52
2023-05-09T08:58:19.776Z,12.85
2023-05-09T09:00:47.075Z,10.15
2023-05-09T09:03:13.889Z,12.13
2023-05-09T09:05:42.790Z,9.98
2023-05-09T09:08:10.877Z,10.20
2023-05-09T09:10:41.895Z,9.50
2023-05-09T09:13:10.488Z,9.60
2023-05-09T09:15:38.527Z,10.95
2023-05-09T09:18:09.041Z,8.52
2023-05-09T09:20:40.356Z,9.75
2023-05-09T09:23:10.554Z,8.57
2023-05-09T09:25:37.396Z,9.13
2023-05-09T09:28:04.998Z,8.85
2023-05-09T09:30:31.610Z,10.57
2023-05-09T09:33:00.831Z,10.65
2023-05-09T09:35:27.446Z,10.32
2023-05-09T09:38:00.643Z,10.25
2023-05-09T09:40:27.071Z,9.02
2023-05-09T09:42:56.319Z,11.30
2023-05-09T09:45:22.837Z,8.93
2023-05-09T09:47:50.267Z,9.27
2023-05-09T09:50:23.154Z,8.75
2023-05-09T09:52:55.714Z,8.88
2023-05-09T09:55:24.382Z,8.82
2023-05-09T09:57:51.559Z,8.50
2023-05-09T10:00:28.475Z,8.20
2023-05-09T10:02:59.424Z,9.45
2023-05-09T10:05:34.359Z,9.02
2023-05-09T10:08:03.796Z,7.70
2023-05-09T10:10:33.236Z,9.18
2023-05-09T10:13:07.629Z,9.07
2023-05-09T10:15:49.522Z,8.48
2023-05-09T10:18:24.898Z,8.07
2023-05-09T10:21:00.848Z,8.38
2023-05-09T10:23:30.958Z,8.10
2023-05-09T10:26:18.757Z,7.75
2023-05-09T10:28:49.297Z,7.70
2023-05-09T10:31:22.387Z,8.40
2023-05-09T10:33:50.367Z,7.25
2023-05-09T10:36:21.301Z,7.53
2023-05-09T10:38:49.295Z,7.37
2023-05-09T10:41:21.901Z,7.25
2023-05-09T10:43:48.831Z,6.95
2023-05-09T10:46:18.055Z,7.50
2023-05-09T10:48:46.566Z,6.07
2023-05-09T10:51:13.602Z,8.10
2023-05-09T10:53:48.807Z,7.68
2023-05-09T10:56:26.900Z,6.43
2023-05-09T10:58:54.663Z,6.68
2023-05-09T11:01:37.009Z,6.30
2023-05-09T11:04:16.382Z,6.57
2023-05-09T11:06:43.770Z,6.50
2023-05-09T11:09:27.554Z,6.43
2023-05-09T11:12:14.321Z,7.38
2023-05-09T11:14:48.978Z,6.18
2023-05-09T11:17:22.540Z,7.40
2023-05-09T11:19:51.676Z,7.05
2023-05-09T11:22:37.563Z,7.63
2023-05-09T11:25:17.487Z,6.45
2023-05-09T11:27:46.166Z,7.25
2023-05-09T11:30:14.999Z,6.82
2023-05-09T11:32:52.333Z,6.18
2023-05-09T11:35:21.047Z,7.32
2023-05-09T11:37:52.997Z,7.22
2023-05-09T11:40:24.693Z,5.30
2023-05-09T11:42:56.244Z,6.32
2023-05-09T11:45:26.741Z,7.50
2023-05-09T11:47:53.956Z,7.10
2023-05-09T11:50:21.652Z,7.95
2023-05-09T11:52:49.159Z,7.07
2023-05-09T11:55:22.998Z,7.18
2023-05-09T11:57:52.521Z,7.53
2023-05-09T12:00:26.267Z,6.85
2023-05-09T12:02:53.544Z,6.63
2023-05-09T12:05:22.065Z,5.80
2023-05-09T12:07:49.057Z,7.35
2023-05-09T12:10:19.267Z,6.32
2023-05-09T12:12:48.496Z,5.45
2023-05-09T12:15:15.902Z,6.65
2023-05-09T12:17:43.707Z,7.65
2023-05-09T12:20:11.002Z,7.60
2023-05-09T12:22:37.698Z,7.28
2023-05-09T12:25:09.569Z,6.40
2023-05-09T12:30:08.860Z,6.57
2023-05-09T12:35:03.650Z,7.53
2023-05-09T12:37:32.637Z,6.88
2023-05-09T12:40:13.198Z,6.90
2023-05-09T12:42:43.035Z,6.18
2023-05-09T12:45:10.386Z,5.85
2023-05-09T12:47:38.939Z,7.25
2023-05-09T12:50:07.409Z,7.30
2023-05-09T12:52:36.744Z,6.80
2023-05-09T12:55:11.362Z,6.78
2023-05-09T12:57:39.507Z,7.07
2023-05-09T13:00:07.955Z,7.50
2023-05-09T13:02:40.014Z,7.35
2023-05-09T13:05:11.013Z,6.30
2023-05-09T13:07:40.434Z,5.70
2023-05-09T13:10:28.486Z,6.93
2023-05-09T13:12:55.213Z,5.80
2023-05-09T13:15:23.423Z,5.63
2023-05-09T13:17:53.266Z,6.55
2023-05-09T13:20:19.876Z,6.93
2023-05-09T13:22:47.344Z,6.05
2023-05-09T13:25:14.328Z,6.90
2023-05-09T13:27:40.911Z,6.90
2023-05-09T13:30:08.521Z,6.18
2023-05-09T13:32:36.460Z,6.90
2023-05-09T13:35:06.751Z,6.45
2023-05-09T13:37:34.193Z,6.13
2023-05-09T13:40:04.201Z,5.47
2023-05-09T13:42:31.161Z,6.68
2023-05-09T13:45:00.761Z,5.68
2023-05-09T13:47:27.303Z,5.60
2023-05-09T13:49:54.002Z,5.50
2023-05-09T13:52:20.500Z,5.88
2023-05-09T13:54:47.152Z,6.53
2023-05-09T13:57:13.514Z,6.28
2023-05-09T13:59:43.163Z,5.03
2023-05-09T14:02:11.008Z,4.45
2023-05-09T14:04:37.565Z,4.22
2023-05-09T14:07:04.841Z,5.05
2023-05-09T14:09:31.339Z,5.20
2023-05-09T14:11:57.842Z,4.38
2023-05-09T14:14:25.472Z,4.95
2023-05-09T14:16:52.068Z,4.88
2023-05-09T14:19:18.708Z,4.63
2023-05-09T14:21:48.981Z,4.35
2023-05-09T14:24:18.905Z,4.40
2023-05-09T14:26:45.407Z,3.88
2023-05-09T14:29:12.180Z,3.70
2023-05-09T14:31:38.756Z,4.75
2023-05-09T14:34:06.207Z,5.38
2023-05-09T14:36:33.237Z,4.57
2023-05-09T14:38:59.682Z,4.72
2023-05-09T14:41:26.758Z,5.25
2023-05-09T14:43:53.401Z,4.35
2023-05-09T14:46:19.969Z,4.25
2023-05-09T14:48:46.473Z,4.70
2023-05-09T14:51:13.043Z,4.18
2023-05-09T14:53:42.187Z,4.90
2023-05-09T14:56:12.281Z,5.10
2023-05-09T14:58:38.912Z,4.03
2023-05-09T15:01:05.508Z,3.97
2023-05-09T15:03:32.113Z,4.43
2023-05-09T15:05:59.170Z,5.45
2023-05-09T15:08:26.002Z,4.32
2023-05-09T15:10:52.789Z,4.32
2023-05-09T15:13:19.522Z,4.10
2023-05-09T15:15:46.062Z,5.32
2023-05-09T15:18:16.622Z,4.70
2023-05-09T15:20:43.347Z,4.40
2023-05-09T15:23:10.803Z,5.00
2023-05-09T15:25:37.353Z,6.18
2023-05-09T15:28:03.930Z,5.43
2023-05-09T15:30:30.601Z,4.65
2023-05-09T15:32:57.475Z,5.47
2023-05-09T15:35:24.044Z,5.03
2023-05-09T15:37:50.537Z,5.85
2023-05-09T15:40:22.123Z,5.15
2023-05-09T15:42:52.728Z,5.32
2023-05-09T15:45:19.327Z,5.15
2023-05-09T15:47:45.961Z,4.47
2023-05-09T15:50:12.941Z,5.25
2023-05-09T15:52:39.551Z,5.25
2023-05-09T15:55:06.983Z,5.63
2023-05-09T15:57:33.589Z,5.90
2023-05-09T16:00:00.039Z,4.88
2023-05-09T16:02:30.414Z,4.82
2023-05-09T16:04:56.991Z,5.63
2023-05-09T16:07:23.524Z,6.82
2023-05-09T16:09:49.998Z,6.00
2023-05-09T16:12:16.632Z,5.90
2023-05-09T16:14:43.259Z,5.13
2023-05-09T16:17:09.806Z,6.00
2023-05-09T16:19:36.501Z,5.75
2023-05-09T16:22:03.356Z,5.85
2023-05-09T16:24:31.656Z,6.95
2023-05-09T16:26:58.184Z,6.05
2023-05-09T16:29:24.785Z,6.13
2023-05-09T16:31:51.410Z,6.63
2023-05-09T16:34:17.839Z,5.90
2023-05-09T16:36:46.500Z,5.38
2023-05-09T16:39:13.114Z,5.20
2023-05-09T16:41:39.609Z,5.20
2023-05-09T16:44:06.119Z,4.63
2023-05-09T16:46:32.533Z,5.00
2023-05-09T16:48:58.898Z,5.60
2023-05-09T16:51:25.393Z,4.60
2023-05-09T16:53:51.974Z,5.97
2023-05-09T16:56:18.432Z,5.03
2023-05-09T16:58:44.968Z,4.60
2023-05-09T17:01:11.656Z,4.30
2023-05-09T17:03:38.245Z,5.00
2023-05-09T17:06:04.850Z,4.20
2023-05-09T17:08:31.493Z,5.30
2023-05-09T17:10:58.167Z,4.60
2023-05-09T17:13:24.806Z,4.70
2023-05-09T17:15:52.642Z,4.65
2023-05-09T17:18:33.205Z,5.10
2023-05-09T17:21:03.127Z,5.00
2023-05-09T17:23:29.523Z,5.57
2023-05-09T17:25:55.881Z,5.97
2023-05-09T17:28:22.376Z,6.10
2023-05-09T17:30:48.834Z,4.40
2023-05-09T17:33:15.564Z,5.00
2023-05-09T17:35:41.970Z,5.03
2023-05-09T17:38:08.382Z,4.50
2023-05-09T17:40:34.858Z,4.75
2023-05-09T17:43:01.231Z,4.50
2023-05-09T17:45:27.660Z,4.30
2023-05-09T17:47:54.057Z,4.10
2023-05-09T17:50:20.692Z,3.75
2023-05-09T17:52:49.382Z,3.85
2023-05-09T17:55:16.023Z,3.75
2023-05-09T17:57:43.339Z,3.78
2023-05-09T18:00:10.302Z,3.03
2023-05-09T18:02:36.977Z,3.53
2023-05-09T18:05:03.888Z,3.90
2023-05-09T18:07:32.111Z,4.53
2023-05-09T18:09:58.647Z,4.60
2023-05-09T18:12:27.559Z,4.55
2023-05-09T18:14:55.294Z,3.70
2023-05-09T18:17:21.866Z,3.72
2023-05-09T18:19:48.378Z,4.03
2023-05-09T18:22:15.675Z,8.40
2023-05-09T18:24:42.188Z,10.13
2023-05-09T18:27:08.616Z,5.38
2023-05-09T18:29:35.052Z,4.47
2023-05-09T18:32:01.968Z,8.18
2023-05-09T18:34:28.848Z,8.35
2023-05-09T18:36:55.748Z,4.80
2023-05-09T18:39:22.184Z,3.47
2023-05-09T18:41:48.720Z,2.83
2023-05-09T18:44:15.288Z,2.88
2023-05-09T18:46:41.945Z,2.45
2023-05-09T18:49:09.486Z,2.22
2023-05-09T18:51:36.469Z,2.65
2023-05-09T18:54:02.932Z,2.20
2023-05-09T18:56:29.394Z,2.17
2023-05-09T18:58:58.802Z,1.80
2023-05-09T19:01:25.639Z,1.80
2023-05-09T19:03:54.337Z,1.73
2023-05-09T19:06:21.972Z,1.73
2023-05-09T19:08:48.647Z,1.60
2023-05-09T19:11:15.055Z,2.20
2023-05-09T19:13:50.479Z,1.80
2023-05-09T19:16:19.592Z,1.52
2023-05-09T19:18:46.182Z,2.20
2023-05-09T19:21:13.665Z,1.60
2023-05-09T19:23:40.134Z,2.35
2023-05-09T19:26:06.939Z,2.10
2023-05-09T19:28:34.874Z,2.53
2023-05-09T19:31:02.020Z,2.45
2023-05-09T19:33:28.492Z,2.45
2023-05-09T19:35:54.926Z,2.50
2023-05-09T19:38:21.492Z,2.67
2023-05-09T19:40:51.122Z,2.40
2023-05-09T19:43:17.630Z,2.40
2023-05-09T19:45:44.049Z,2.30
2023-05-09T19:48:15.730Z,2.25
2023-05-09T19:50:42.879Z,5.28
2023-05-09T19:53:09.473Z,2.45
2023-05-09T19:55:36.052Z,2.65
2023-05-09T19:58:02.840Z,4.80
2023-05-09T20:00:29.302Z,3.13
2023-05-09T20:02:55.877Z,3.80
2023-05-09T20:05:22.365Z,3.92
2023-05-09T20:08:09.480Z,4.15
2023-05-09T20:10:36.216Z,3.45
2023-05-09T20:13:04.250Z,4.43
2023-05-09T20:15:31.242Z,4.00
2023-05-09T20:17:58.265Z,5.13
2023-05-09T20:20:24.906Z,4.45
2023-05-09T20:22:51.420Z,4.22
2023-05-09T20:25:17.835Z,3.45
2023-05-09T20:27:44.305Z,4.47
2023-05-09T20:30:11.483Z,4.00
2023-05-09T20:32:38.021Z,4.93
2023-05-09T20:35:04.947Z,3.80
2023-05-09T20:37:31.817Z,4.25
2023-05-09T20:39:58.363Z,4.95
2023-05-09T20:42:27.828Z,4.13
2023-05-09T20:44:55.086Z,4.10
2023-05-09T20:47:21.659Z,4.07
2023-05-09T20:49:48.160Z,4.53
2023-05-09T20:52:14.600Z,4.25
2023-05-09T20:54:41.148Z,4.10
2023-05-09T20:57:07.773Z,5.10
2023-05-09T20:59:34.296Z,4.22
2023-05-09T21:02:00.771Z,5.80
2023-05-09T21:04:27.269Z,5.28
2023-05-09T21:06:59.814Z,5.75
2023-05-09T21:09:26.345Z,6.80
2023-05-09T21:11:52.835Z,6.40
2023-05-09T21:14:19.445Z,6.45
2023-05-09T21:16:49.054Z,6.30
2023-05-09T21:19:18.388Z,8.45
2023-05-09T21:21:44.843Z,7.28
2023-05-09T21:24:11.276Z,9.07
2023-05-09T21:26:37.752Z,8.82
2023-05-09T21:29:04.354Z,8.73
2023-05-09T21:31:31.295Z,10.65
2023-05-09T21:33:59.159Z,10.40
2023-05-09T21:36:25.822Z,10.48
2023-05-09T21:38:52.485Z,9.98
2023-05-09T21:41:19.056Z,12.77
2023-05-09T21:43:45.725Z,12.13
2023-05-09T21:46:12.434Z,12.32
2023-05-09T21:48:42.433Z,13.23
2023-05-09T21:51:08.888Z,14.18
2023-05-09T21:53:35.402Z,12.77
2023-05-09T21:56:02.156Z,13.65
2023-05-09T21:58:28.532Z,12.43
2023-05-09T22:00:54.937Z,16.33
2023-05-09T22:03:21.578Z,15.77
2023-05-09T22:05:48.029Z,16.08
2023-05-09T22:08:14.477Z,14.82
2023-05-09T22:10:41.042Z,16.02
2023-05-09T22:13:08.953Z,16.77
2023-05-09T22:15:35.462Z,16.92
2023-05-09T22:18:02.049Z,16.00
2023-05-09T22:20:28.707Z,16.42
2023-05-09T22:22:55.114Z,17.83
2023-05-09T22:25:21.556Z,16.90
2023-05-09T22:27:48.062Z,18.38
2023-05-09T22:30:14.841Z,18.48
2023-05-09T22:32:41.567Z,19.05
2023-05-09T22:35:08.522Z,18.13
2023-05-09T22:37:34.926Z,19.65
2023-05-09T22:40:01.464Z,19.67
2023-05-09T22:42:29.359Z,20.83
2023-05-09T22:44:55.874Z,19.63
2023-05-09T22:47:22.355Z,19.95
2023-05-09T22:49:49.562Z,19.65
2023-05-09T22:52:16.405Z,21.75
2023-05-09T22:54:42.914Z,21.13
2023-05-09T22:57:09.786Z,19.90
2023-05-09T22:59:37.004Z,21.05
2023-05-09T23:02:03.834Z,22.45
2023-05-09T23:04:30.363Z,24.85
2023-05-09T23:06:56.787Z,21.27
2023-05-09T23:09:23.397Z,21.67
2023-05-09T23:11:49.911Z,21.73
2023-05-09T23:14:16.498Z,24.98
2023-05-09T23:16:43.067Z,25.63
2023-05-09T23:19:10.616Z,24.95
2023-05-09T23:21:37.262Z,22.10
2023-05-09T23:24:06.776Z,25.17
2023-05-09T23:26:33.353Z,24.42
2023-05-09T23:29:02.472Z,26.65
2023-05-09T23:31:28.924Z,25.00
2023-05-09T23:33:55.376Z,26.23
2023-05-09T23:36:27.397Z,23.25
2023-05-09T23:38:53.943Z,26.48
2023-05-09T23:41:21.943Z,26.23
2023-05-09T23:43:48.612Z,26.65
2023-05-09T23:46:16.064Z,25.45
2023-05-09T23:48:42.608Z,25.83
2023-05-09T23:51:09.037Z,28.00
2023-05-09T23:53:35.428Z,28.10
2023-05-09T23:56:02.839Z,26.38
2023-05-09T23:58:29.389Z,27.95
